Time;durP1;ratioP1;P1;durP2;ratioP2;P2;SDS_P1;SDS_P2;PMS_P1;PMS_P2;Temp;Humidity;BMP_temperature;BMP_pressure;BME280_temperature;BME280_humidity;BME280_pressure;Samples;Min_cycle;Max_cycle;Signal;HPM_P1;HPM_P2
2021/05/20 00:00:15;;;;;;;82.70;45.33;;;8.80;86.70;8.60;101886.00;;;;4955239;28;20453;-82
2021/05/20 00:02:41;;;;;;;92.32;47.05;;;;;8.60;101899.00;;;;4941683;28;20125;-82
2021/05/20 00:05:09;;;;;;;85.17;48.67;;;9.60;87.40;8.60;101899.00;;;;4957384;28;20117;-82
2021/05/20 00:07:35;;;;;;;86.70;47.88;;;9.60;87.30;8.50;101902.00;;;;4952333;28;20043;-81
2021/05/20 00:10:01;;;;;;;86.65;47.67;;;;;8.50;101907.00;;;;4934902;28;20557;-82
2021/05/20 00:12:28;;;;;;;95.32;51.55;;;;;8.50;101907.00;;;;4916816;29;20055;-82
2021/05/20 00:14:54;;;;;;;87.60;48.70;;;9.50;87.70;8.50;101899.00;;;;4919973;28;20054;-82
2021/05/20 00:17:19;;;;;;;79.78;45.95;;;9.50;87.70;8.50;101910.00;;;;4918194;29;20035;-83
2021/05/20 00:19:45;;;;;;;84.10;47.63;;;9.50;87.90;8.50;101915.00;;;;4934035;28;20047;-81
2021/05/20 00:22:11;;;;;;;93.47;53.28;;;9.50;87.60;8.50;101912.00;;;;4930898;28;20126;-82
2021/05/20 00:24:38;;;;;;;99.05;55.20;;;;;8.40;101903.00;;;;4949779;28;20099;-83
2021/05/20 00:27:04;;;;;;;113.07;61.83;;;9.50;87.90;8.40;101913.00;;;;4933365;28;20495;-83
2021/05/20 00:29:30;;;;;;;120.33;64.03;;;9.40;87.70;8.30;101905.00;;;;4939680;28;20062;-82
2021/05/20 00:31:56;;;;;;;110.13;60.50;;;9.40;88.00;8.40;101906.00;;;;4940849;28;20047;-83
2021/05/20 00:34:22;;;;;;;106.38;59.65;;;9.40;88.10;8.40;101909.00;;;;4940487;28;20043;-83
2021/05/20 00:36:48;;;;;;;115.93;62.15;;;;;8.30;101916.00;;;;4939538;28;20725;-82
2021/05/20 00:39:14;;;;;;;103.43;59.15;;;9.40;88.00;8.30;101912.00;;;;4932534;28;20043;-82
2021/05/20 00:41:40;;;;;;;92.78;54.33;;;;;8.30;101921.00;;;;4935054;28;20065;-82
2021/05/20 00:44:07;;;;;;;104.25;56.53;;;;;8.30;101928.00;;;;4935400;28;20077;-82
2021/05/20 00:46:33;;;;;;;98.37;54.70;;;9.40;88.00;8.30;101913.00;;;;4932751;28;20179;-82
2021/05/20 00:48:59;;;;;;;96.10;54.95;;;9.30;88.00;8.30;101913.00;;;;4936843;28;20382;-81
2021/05/20 00:51:25;;;;;;;97.55;54.78;;;;;8.30;101926.00;;;;4920154;29;20051;-81
2021/05/20 00:53:51;;;;;;;96.60;55.57;;;9.30;88.10;8.20;101926.00;;;;4937660;28;20047;-81
2021/05/20 00:56:21;;;;;;;104.97;57.33;;;9.30;88.20;8.20;101911.00;;;;4936669;28;20047;-82
2021/05/20 00:58:48;;;;;;;100.78;55.50;;;9.20;88.10;8.20;101919.00;;;;4935956;28;20055;-81
2021/05/20 01:01:14;;;;;;;85.70;50.53;;;;;8.10;101917.00;;;;4950068;28;20457;-81
2021/05/20 01:03:41;;;;;;;96.68;55.00;;;;;8.10;101919.00;;;;4942964;28;20035;-81
2021/05/20 01:06:08;;;;;;;94.38;53.88;;;;;8.10;101910.00;;;;4955381;28;20038;-82
2021/05/20 01:08:34;;;;;;;98.70;54.50;;;;;8.10;101909.00;;;;4952775;28;20051;-82
2021/05/20 01:11:01;;;;;;;90.28;54.08;;;;;8.10;101910.00;;;;4953927;28;20039;-82
2021/05/20 01:13:27;;;;;;;80.30;48.72;;;;;8.00;101921.00;;;;4932988;28;20648;-83
2021/05/20 01:15:54;;;;;;;87.80;50.30;;;9.10;88.10;8.00;101912.00;;;;4934460;28;20095;-83
2021/05/20 01:18:20;;;;;;;82.30;50.33;;;9.30;88.60;8.00;101914.00;;;;4932228;28;20063;-83
2021/05/20 01:20:46;;;;;;;96.43;56.03;;;9.00;88.30;7.90;101924.00;;;;4953111;28;20038;-83
2021/05/20 01:23:19;;;;;;;110.70;60.28;;;;;7.90;101925.00;;;;4951090;28;20043;-83
2021/05/20 01:25:49;;;;;;;87.13;53.60;;;;;7.80;101932.00;;;;4952891;28;20054;-82
2021/05/20 01:28:20;;;;;;;82.78;48.53;;;8.90;88.90;7.80;101930.00;;;;4925711;28;20050;-82
2021/05/20 01:30:48;;;;;;;83.70;49.28;;;8.90;88.20;7.80;101932.00;;;;4968652;28;20500;-83
2021/05/20 01:33:14;;;;;;;79.22;47.60;;;8.90;88.30;7.80;101927.00;;;;4932666;28;20564;-82
2021/05/20 01:35:40;;;;;;;73.90;43.10;;;8.80;88.40;7.70;101936.00;;;;4935433;28;20032;-82
2021/05/20 01:40:59;;;;;;;63.17;37.80;;;8.70;88.40;7.70;101936.00;;;;4956036;28;20058;-82
2021/05/20 01:43:27;;;;;;;67.53;39.55;;;8.70;88.40;7.60;101940.00;;;;4918602;29;20043;-82
2021/05/20 01:45:58;;;;;;;73.22;43.70;;;8.70;88.50;7.60;101935.00;;;;4918204;28;20034;-82
2021/05/20 01:48:38;;;;;;;85.32;46.55;;;8.70;88.50;7.60;101933.00;;;;4960154;28;20726;-82
2021/05/20 01:51:16;;;;;;;107.30;50.55;;;8.70;88.80;7.50;101949.00;;;;4925010;28;20043;-83
2021/05/20 01:53:45;;;;;;;88.93;46.90;;;8.70;88.90;7.50;101939.00;;;;4939524;28;20062;-83
2021/05/20 01:56:15;;;;;;;106.20;51.08;;;8.70;88.90;7.50;101938.00;;;;4938750;28;20043;-81
2021/05/20 01:58:42;;;;;;;95.28;50.25;;;8.70;89.10;7.60;101949.00;;;;4942947;28;20094;-82
2021/05/20 02:01:08;;;;;;;85.32;45.17;;;;;7.60;101948.00;;;;4939594;28;20132;-82
2021/05/20 02:03:35;;;;;;;105.72;50.90;;;8.60;89.10;7.50;101946.00;;;;4955149;28;20047;-82
2021/05/20 02:06:02;;;;;;;104.57;49.17;;;8.70;89.30;7.50;101949.00;;;;4940917;28;20039;-81
2021/05/20 02:08:33;;;;;;;103.75;50.50;;;8.70;89.50;7.50;101955.00;;;;4912425;29;20103;-81
2021/05/20 02:11:01;;;;;;;97.53;49.08;;;8.60;89.80;7.50;101953.00;;;;4925715;28;20051;-82
2021/05/20 02:13:27;;;;;;;108.00;48.88;;;8.60;89.90;7.60;101957.00;;;;4951200;28;20054;-82
2021/05/20 02:15:53;;;;;;;86.13;46.85;;;8.70;90.00;7.60;101956.00;;;;4942898;29;20062;-82
2021/05/20 02:18:20;;;;;;;93.93;47.50;;;;;7.60;101956.00;;;;4955902;28;20864;-82
2021/05/20 02:20:47;;;;;;;103.05;46.72;;;8.70;90.00;7.60;101947.00;;;;4951483;28;20066;-82
2021/05/20 02:23:14;;;;;;;111.93;49.40;;;8.70;90.10;7.70;101943.00;;;;4983541;28;20058;-82
2021/05/20 02:25:41;;;;;;;117.82;52.55;;;;;7.70;101951.00;;;;4962723;28;20094;-82
2021/05/20 02:28:07;;;;;;;111.55;50.47;;;8.70;90.10;7.80;101952.00;;;;4937287;28;20129;-82
2021/05/20 02:30:34;;;;;;;102.60;48.60;;;8.80;90.10;7.80;101954.00;;;;4939021;28;20460;-83
2021/05/20 02:33:00;;;;;;;109.50;50.65;;;8.80;90.20;7.80;101948.00;;;;4941255;28;20078;-83
2021/05/20 02:35:26;;;;;;;115.95;49.45;;;9.00;90.40;7.90;101946.00;;;;4976868;28;20039;-82
2021/05/20 02:37:53;;;;;;;128.30;52.70;;;8.90;90.40;7.90;101953.00;;;;4942938;28;20086;-82
2021/05/20 02:40:20;;;;;;;252.77;57.88;;;9.00;90.50;8.00;101957.00;;;;4939161;28;20047;-82
2021/05/20 02:42:47;;;;;;;121.93;50.70;;;9.00;90.40;8.00;101965.00;;;;4943836;28;20098;-82
2021/05/20 02:45:20;;;;;;;218.52;67.03;;;9.10;90.40;8.00;101957.00;;;;4943701;28;21911;-81
2021/05/20 02:47:48;;;;;;;450.42;69.55;;;9.00;90.30;8.10;101945.00;;;;4946196;28;20062;-82
2021/05/20 02:50:16;;;;;;;234.77;66.00;;;9.10;90.50;8.10;101960.00;;;;4945715;28;20062;-81
2021/05/20 02:52:44;;;;;;;336.63;64.70;;;9.10;90.60;8.10;101964.00;;;;4934440;28;20500;-82
2021/05/20 02:55:20;;;;;;;245.13;60.03;;;9.10;90.60;8.10;101953.00;;;;4949799;28;20129;-82
2021/05/20 02:57:51;;;;;;;295.50;65.13;;;9.10;90.60;8.20;101942.00;;;;4933901;29;20532;-82
2021/05/20 03:00:19;;;;;;;331.20;63.05;;;9.20;90.70;8.20;101949.00;;;;4917129;28;20041;-82
2021/05/20 03:02:47;;;;;;;;;;;9.20;91.10;8.10;101949.00;;;;4942344;28;20664;-83
2021/05/20 03:05:14;;;;;;;209.20;58.15;;;;;8.20;101960.00;;;;4937898;28;20362;-82
2021/05/20 03:07:40;;;;;;;435.53;64.60;;;9.20;90.70;8.20;101955.00;;;;4937602;28;20035;-83
2021/05/20 03:10:07;;;;;;;340.67;66.18;;;;;8.20;101967.00;;;;4947524;28;20057;-83
2021/05/20 03:12:34;;;;;;;361.95;64.05;;;9.20;90.60;8.10;101963.00;;;;4953107;28;20043;-82
2021/05/20 03:15:00;;;;;;;340.33;60.95;;;10.00;90.80;8.20;101968.00;;;;4950287;28;20053;-83
2021/05/20 03:17:27;;;;;;;494.45;68.25;;;9.20;90.70;8.10;101960.00;;;;4933858;28;20388;-83
2021/05/20 03:19:53;;;;;;;398.20;65.03;;;9.20;90.90;8.20;101965.00;;;;4934486;28;20042;-83
2021/05/20 03:22:21;;;;;;;271.90;56.38;;;;;8.20;101956.00;;;;4934127;28;20130;-83
2021/05/20 03:24:50;;;;;;;202.27;56.33;;;;;8.20;101952.00;;;;4920488;29;20721;-82
2021/05/20 03:27:18;;;;;;;544.03;70.30;;;9.30;90.90;8.20;101950.00;;;;4917415;28;20328;-82
2021/05/20 03:29:44;;;;;;;375.42;64.07;;;9.20;91.00;8.30;101944.00;;;;4937209;28;20078;-83
2021/05/20 03:32:10;;;;;;;438.50;70.90;;;9.30;91.00;8.30;101959.00;;;;4946774;28;20194;-83
2021/05/20 03:34:36;;;;;;;237.20;58.33;;;9.30;91.00;8.30;101938.00;;;;4953532;28;20130;-85
2021/05/20 03:37:03;;;;;;;573.35;74.90;;;;;8.40;101954.00;;;;4953190;28;20130;-86
2021/05/20 03:39:32;;;;;;;259.05;58.20;;;9.40;91.10;8.40;101954.00;;;;4956897;28;20050;-82
2021/05/20 03:41:58;;;;;;;346.30;66.47;;;9.40;91.10;8.40;101957.00;;;;4946784;28;20877;-83
2021/05/20 03:44:24;;;;;;;268.90;58.03;;;9.40;91.40;8.50;101945.00;;;;4935504;28;20597;-81
2021/05/20 03:46:51;;;;;;;396.20;61.47;;;;;8.50;101950.00;;;;4932203;28;20186;-83
2021/05/20 03:49:18;;;;;;;209.05;53.65;;;;;8.50;101955.00;;;;4937912;28;20051;-83
2021/05/20 03:51:44;;;;;;;183.55;51.42;;;9.50;91.10;8.50;101948.00;;;;4921403;28;20039;-80
2021/05/20 03:54:10;;;;;;;167.98;47.40;;;9.50;91.00;8.50;101947.00;;;;4917316;29;20040;-84
2021/05/20 03:56:36;;;;;;;205.13;49.33;;;9.50;91.00;8.50;101969.00;;;;4917714;29;20058;-81
2021/05/20 03:59:03;;;;;;;197.68;50.58;;;;;8.50;101961.00;;;;4919222;28;20051;-84
2021/05/20 04:01:29;;;;;;;190.35;53.45;;;9.50;91.10;8.60;101959.00;;;;4907691;28;20133;-83
2021/05/20 04:03:55;;;;;;;290.85;54.17;;;;;8.60;101954.00;;;;4935872;28;20123;-84
2021/05/20 04:06:21;;;;;;;227.25;51.00;;;9.50;91.00;8.50;101947.00;;;;4938171;28;20057;-83
2021/05/20 04:08:47;;;;;;;184.13;50.15;;;9.50;91.10;8.50;101961.00;;;;4938587;28;20047;-84
2021/05/20 04:11:13;;;;;;;140.57;46.83;;;11.20;91.60;8.60;101960.00;;;;4921681;28;20058;-84
2021/05/20 04:13:42;;;;;;;232.40;51.08;;;9.50;91.10;8.60;101959.00;;;;4935757;28;20138;-84
2021/05/20 04:16:14;;;;;;;210.60;52.25;;;9.50;91.30;8.60;101958.00;;;;4935041;28;20032;-84
2021/05/20 04:18:44;;;;;;;221.15;52.75;;;9.60;91.30;8.60;101960.00;;;;4947958;28;20134;-83
2021/05/20 04:21:10;;;;;;;138.35;49.08;;;9.60;91.20;8.60;101961.00;;;;4951833;28;20196;-85
2021/05/20 04:23:43;;;;;;;157.80;49.90;;;9.60;91.20;8.70;101963.00;;;;4924285;28;20043;-84
2021/05/20 04:26:09;;;;;;;171.73;55.28;;;9.60;91.20;8.70;101955.00;;;;4938964;28;20052;-82
2021/05/20 04:28:36;;;;;;;136.00;50.92;;;;;8.70;101953.00;;;;4922493;29;20135;-85
2021/05/20 04:31:02;;;;;;;148.97;53.07;;;;;8.70;101959.00;;;;4954548;28;20038;-82
2021/05/20 04:33:28;;;;;;;119.88;47.53;;;;;8.80;101951.00;;;;4933870;28;20059;-83
2021/05/20 04:35:54;;;;;;;152.13;50.05;;;9.70;91.30;8.90;101960.00;;;;4918971;29;20047;-83
2021/05/20 04:38:20;;;;;;;157.27;53.90;;;;;8.90;101967.00;;;;4932753;28;20585;-83
2021/05/20 04:40:46;;;;;;;134.20;51.13;;;9.80;91.50;8.90;101969.00;;;;4947494;28;20054;-83
2021/05/20 04:43:12;;;;;;;129.25;51.60;;;9.90;91.30;9.00;101966.00;;;;4936706;28;20043;-83
2021/05/20 04:45:39;;;;;;;118.97;46.65;;;9.90;91.20;9.00;101955.00;;;;4934328;28;20079;-83
2021/05/20 04:48:05;;;;;;;114.13;43.65;;;10.00;91.20;9.00;101978.00;;;;4917449;29;20143;-83
2021/05/20 04:50:32;;;;;;;108.13;43.10;;;;;9.00;101979.00;;;;4947412;28;20051;-83
2021/05/20 04:52:58;;;;;;;100.80;42.38;;;10.00;91.00;9.10;101982.00;;;;4948370;28;20077;-82
2021/05/20 04:55:24;;;;;;;85.18;38.40;;;;;9.10;101983.00;;;;4935428;28;20047;-82
2021/05/20 04:57:50;;;;;;;77.27;36.83;;;10.00;91.00;9.10;101988.00;;;;4944436;28;20098;-82
2021/05/20 05:00:17;;;;;;;76.72;35.63;;;10.10;91.00;9.10;101985.00;;;;4973556;28;20664;-82
2021/05/20 05:02:43;;;;;;;89.35;38.13;;;10.10;90.90;9.10;101978.00;;;;4955455;28;20136;-83
2021/05/20 05:05:10;;;;;;;94.70;37.67;;;;;9.20;101975.00;;;;4933443;28;20109;-84
2021/05/20 05:07:36;;;;;;;113.15;45.53;;;10.10;90.90;9.20;101980.00;;;;4930777;28;20050;-83
2021/05/20 05:10:04;;;;;;;89.80;40.65;;;10.10;91.00;9.20;101985.00;;;;4931609;28;20126;-82
2021/05/20 05:12:30;;;;;;;85.70;36.05;;;10.10;90.80;9.20;101983.00;;;;4948835;28;20078;-81
2021/05/20 05:14:57;;;;;;;82.35;36.75;;;10.20;91.10;9.20;101976.00;;;;4955910;28;20046;-82
2021/05/20 05:17:24;;;;;;;96.68;41.10;;;10.20;90.70;9.20;101975.00;;;;4953599;28;20049;-84
2021/05/20 05:19:50;;;;;;;82.75;37.17;;;10.20;90.70;9.30;101973.00;;;;4927457;28;20729;-84
2021/05/20 05:22:17;;;;;;;79.82;36.88;;;;;9.30;101981.00;;;;4940542;28;20047;-83
2021/05/20 05:24:43;;;;;;;72.50;35.38;;;10.20;90.60;9.30;101972.00;;;;4921728;29;20040;-83
2021/05/20 05:27:09;;;;;;;79.50;35.83;;;10.20;90.60;9.30;101977.00;;;;4953219;28;20533;-83
2021/05/20 05:29:35;;;;;;;78.85;36.42;;;10.20;90.60;9.30;101967.00;;;;4944571;28;20043;-84
2021/05/20 05:32:02;;;;;;;66.50;33.47;;;10.20;90.70;9.30;101968.00;;;;4948753;28;20122;-83
2021/05/20 05:34:29;;;;;;;70.00;36.58;;;10.20;90.80;9.30;101976.00;;;;4936885;28;20051;-82
2021/05/20 05:36:55;;;;;;;80.17;38.20;;;10.30;90.70;9.30;101980.00;;;;4974246;28;20035;-83
2021/05/20 05:39:21;;;;;;;81.13;38.92;;;10.30;90.60;9.40;101985.00;;;;4961110;28;20300;-83
2021/05/20 05:41:47;;;;;;;83.65;36.85;;;;;9.40;101984.00;;;;4947763;28;20574;-82
2021/05/20 05:44:14;;;;;;;81.65;37.05;;;10.20;90.50;9.40;102002.00;;;;4954020;28;20149;-83
2021/05/20 05:46:40;;;;;;;73.38;36.95;;;;;9.40;102007.00;;;;4941781;28;21344;-83
2021/05/20 05:49:19;;;;;;;66.93;35.17;;;10.40;90.50;9.40;102005.00;;;;4957638;28;20083;-82
2021/05/20 05:51:49;;;;;;;98.60;36.15;;;11.40;90.80;9.40;102001.00;;;;4950103;28;20529;-83
2021/05/20 05:54:16;;;;;;;84.57;39.38;;;;;9.40;101998.00;;;;4935675;28;20054;-83
2021/05/20 05:56:42;;;;;;;70.20;35.57;;;10.40;90.50;9.50;102011.00;;;;4950717;28;20541;-82
2021/05/20 05:59:08;;;;;;;74.68;35.60;;;12.50;91.00;9.50;102007.00;;;;4951098;28;20306;-82
2021/05/20 06:01:34;;;;;;;72.65;35.70;;;10.40;90.50;9.50;102009.00;;;;4923346;28;20045;-83
2021/05/20 06:04:01;;;;;;;71.07;35.43;;;10.40;90.30;9.50;102005.00;;;;4962271;28;20054;-84
2021/05/20 06:06:27;;;;;;;80.25;35.42;;;10.40;90.30;9.40;101997.00;;;;4943392;28;20290;-84
2021/05/20 06:08:53;;;;;;;96.32;37.60;;;;;9.40;102011.00;;;;4938116;28;20054;-84
2021/05/20 06:11:19;;;;;;;97.60;39.92;;;;;9.50;102002.00;;;;4936305;28;20689;-83
2021/05/20 06:13:45;;;;;;;77.38;33.97;;;10.40;90.40;9.50;102002.00;;;;4946641;28;20050;-83
2021/05/20 06:16:11;;;;;;;104.07;35.95;;;10.50;90.50;9.50;101991.00;;;;4922694;29;20047;-84
2021/05/20 06:18:38;;;;;;;78.13;34.85;;;;;9.50;102009.00;;;;4949999;28;20197;-84
2021/05/20 06:21:04;;;;;;;126.20;34.63;;;;;9.50;101996.00;;;;4937111;28;20051;-84
2021/05/20 06:23:31;;;;;;;107.18;36.00;;;;;9.50;102006.00;;;;4935961;28;20047;-84
2021/05/20 06:25:57;;;;;;;122.13;36.93;;;10.50;90.40;9.50;102013.00;;;;4935221;28;20051;-84
2021/05/20 06:28:23;;;;;;;94.40;35.55;;;10.40;90.30;9.50;102016.00;;;;4936417;28;20046;-83
2021/05/20 06:30:49;;;;;;;128.27;36.65;;;10.40;90.40;9.50;102008.00;;;;4935427;28;20043;-85
2021/05/20 06:33:16;;;;;;;73.97;33.92;;;12.30;90.80;9.50;102025.00;;;;4933690;28;20058;-84
2021/05/20 06:35:42;;;;;;;89.88;36.72;;;;;9.50;102025.00;;;;4935259;28;20138;-83
2021/05/20 06:38:08;;;;;;;63.55;31.40;;;10.40;90.40;9.50;102035.00;;;;4945418;28;20074;-85
2021/05/20 06:40:34;;;;;;;105.07;36.38;;;10.50;90.30;9.60;102028.00;;;;4942193;28;20218;-84
2021/05/20 06:43:00;;;;;;;152.38;37.13;;;;;9.50;102042.00;;;;4935937;28;20054;-84
2021/05/20 06:45:26;;;;;;;114.82;36.58;;;10.50;90.50;9.50;102034.00;;;;4949829;28;20516;-85
2021/05/20 06:47:55;;;;;;;85.97;33.72;;;10.40;90.40;9.50;102030.00;;;;4946252;28;20039;-84
2021/05/20 06:50:22;;;;;;;78.35;32.55;;;;;9.50;102040.00;;;;4935142;28;20198;-90
2021/05/20 06:52:53;;;;;;;77.63;31.90;;;10.50;90.50;9.60;102033.00;;;;4925187;28;20826;-84
2021/05/20 06:55:21;;;;;;;80.50;32.58;;;10.50;90.50;9.70;102041.00;;;;4956355;28;20279;-84
2021/05/20 07:00:34;;;;;;;88.43;33.58;;;12.70;90.80;9.80;102042.00;;;;4954018;28;20055;-85
2021/05/20 07:03:00;;;;;;;87.60;35.90;;;10.70;90.30;9.80;102037.00;;;;4922295;28;20062;-84
2021/05/20 07:05:27;;;;;;;85.30;37.05;;;10.80;90.30;9.90;102032.00;;;;4960722;28;20483;-85
2021/05/20 07:07:53;;;;;;;101.72;40.15;;;10.90;90.20;10.00;102035.00;;;;4922526;28;20062;-84
2021/05/20 07:10:20;;;;;;;81.25;38.03;;;10.90;90.20;10.00;102035.00;;;;4948956;28;20622;-85
2021/05/20 07:12:46;;;;;;;75.65;34.75;;;10.90;90.10;10.00;102027.00;;;;4934649;28;20067;-83
2021/05/20 07:15:12;;;;;;;84.95;37.83;;;11.00;90.10;10.10;102034.00;;;;4961706;28;20680;-84
2021/05/20 07:17:38;;;;;;;80.97;38.55;;;11.00;90.00;10.10;102027.00;;;;4950818;28;20976;-84
2021/05/20 07:20:08;;;;;;;82.97;36.58;;;11.10;90.10;10.10;102041.00;;;;4928234;28;20118;-84
2021/05/20 07:22:34;;;;;;;89.45;39.65;;;;;10.10;102044.00;;;;4970535;28;20070;-84
2021/05/20 07:25:04;;;;;;;89.05;40.15;;;;;10.10;102053.00;;;;4954124;28;20071;-84
2021/05/20 07:27:32;;;;;;;84.88;38.40;;;11.00;90.00;10.00;102044.00;;;;4943597;28;20141;-84
2021/05/20 07:29:58;;;;;;;77.22;38.38;;;10.90;90.00;10.00;102053.00;;;;4937596;28;20122;-84
2021/05/20 07:32:26;;;;;;;95.57;44.08;;;10.80;90.20;9.90;102051.00;;;;4933324;28;20454;-83
2021/05/20 07:34:53;;;;;;;84.00;41.60;;;10.80;90.10;9.90;102052.00;;;;4949284;28;20140;-83
2021/05/20 07:37:19;;;;;;;82.68;43.60;;;10.80;90.00;9.90;102050.00;;;;4952860;28;20042;-84
2021/05/20 07:39:46;;;;;;;82.13;43.03;;;10.90;90.10;10.00;102037.00;;;;4952742;28;20134;-83
2021/05/20 07:42:13;;;;;;;81.80;42.27;;;11.60;90.10;10.00;102047.00;;;;4969399;28;20360;-84
2021/05/20 07:44:39;;;;;;;78.63;42.95;;;10.90;90.10;10.00;102054.00;;;;4938848;28;20324;-84
2021/05/20 07:47:06;;;;;;;78.85;41.15;;;;;10.00;102048.00;;;;4933752;28;20069;-83
2021/05/20 07:49:36;;;;;;;77.15;40.13;;;10.90;89.50;10.00;102046.00;;;;4923050;28;20075;-84
2021/05/20 07:52:04;;;;;;;73.03;39.50;;;11.00;89.70;10.00;102052.00;;;;4939272;28;20504;-84
2021/05/20 07:54:33;;;;;;;75.40;40.00;;;11.00;89.70;10.10;102051.00;;;;4948820;28;20146;-83
2021/05/20 07:57:00;;;;;;;83.07;41.80;;;11.00;89.60;10.10;102052.00;;;;4950939;28;20043;-85
2021/05/20 07:59:26;;;;;;;89.43;43.15;;;11.60;89.90;10.20;102042.00;;;;4936278;28;20053;-84
2021/05/20 08:04:34;;;;;;;81.63;41.08;;;11.20;89.30;10.40;102043.00;;;;4948811;28;20061;-84
2021/05/20 08:07:09;;;;;;;86.22;41.78;;;11.30;89.10;10.50;102043.00;;;;4935540;28;20110;-84
2021/05/20 08:09:37;;;;;;;85.90;41.45;;;11.30;89.00;10.50;102041.00;;;;4951916;28;20046;-84
2021/05/20 08:12:06;;;;;;;79.85;40.13;;;11.40;88.60;10.70;102040.00;;;;4941249;28;20472;-84
2021/05/20 08:14:32;;;;;;;77.57;39.78;;;;;10.70;102043.00;;;;4935090;28;20067;-83
2021/05/20 08:16:58;;;;;;;77.53;38.07;;;11.30;88.20;10.90;102043.00;;;;4951709;28;20069;-84
2021/05/20 08:19:27;;;;;;;77.57;38.80;;;11.70;88.20;11.00;102042.00;;;;4908192;29;20082;-83
2021/05/20 08:21:53;;;;;;;64.38;35.30;;;11.80;87.90;11.00;102028.00;;;;4903886;29;20039;-83
2021/05/20 08:24:19;;;;;;;71.63;36.53;;;;;11.20;102036.00;;;;4934948;28;20621;-84
2021/05/20 08:26:45;;;;;;;73.50;35.70;;;;;11.20;102045.00;;;;4935303;28;20045;-84
2021/05/20 08:29:12;;;;;;;70.97;37.20;;;;;11.30;102034.00;;;;4919924;28;20081;-84
2021/05/20 08:31:38;;;;;;;71.07;36.88;;;;;11.30;102035.00;;;;4932314;28;20044;-83
2021/05/20 08:34:04;;;;;;;69.47;36.72;;;12.20;86.90;11.30;102030.00;;;;4932412;28;20043;-83
2021/05/20 08:36:32;;;;;;;66.93;36.03;;;;;11.40;102025.00;;;;4906373;28;20112;-84
2021/05/20 08:38:58;;;;;;;64.22;35.65;;;12.20;86.90;11.40;102022.00;;;;4952142;28;20042;-84
2021/05/20 08:41:24;;;;;;;60.13;31.65;;;12.20;87.00;11.40;102024.00;;;;4944591;28;20047;-84
2021/05/20 08:43:50;;;;;;;56.60;31.73;;;12.20;86.50;11.40;102021.00;;;;4961076;28;20077;-84
2021/05/20 08:46:24;;;;;;;49.33;29.83;;;;;11.40;102031.00;;;;4932714;28;20090;-84
2021/05/20 08:48:51;;;;;;;46.67;28.92;;;;;11.40;102019.00;;;;4954280;28;20133;-84
2021/05/20 08:51:19;;;;;;;46.17;29.25;;;12.20;86.90;11.40;102019.00;;;;4933755;29;20075;-84
2021/05/20 08:53:46;;;;;;;47.85;29.23;;;12.20;86.50;11.40;102017.00;;;;4932661;28;20204;-84
2021/05/20 08:56:13;;;;;;;40.92;26.77;;;;;11.40;102017.00;;;;4931697;28;20534;-83
2021/05/20 08:58:39;;;;;;;38.70;26.23;;;11.90;85.60;11.40;102004.00;;;;4967065;28;20050;-84
2021/05/20 09:01:05;;;;;;;42.47;26.98;;;12.30;86.10;11.50;102016.00;;;;4934323;28;20051;-84
2021/05/20 09:03:31;;;;;;;38.95;25.38;;;12.30;86.00;11.60;102025.00;;;;4930924;28;20131;-85
2021/05/20 09:06:04;;;;;;;33.72;24.30;;;12.40;85.10;11.60;102021.00;;;;4932791;28;20067;-84
2021/05/20 09:08:34;;;;;;;35.88;24.20;;;12.40;85.10;11.60;102019.00;;;;4930903;28;20052;-84
2021/05/20 09:11:01;;;;;;;31.55;23.67;;;12.30;84.60;11.60;102010.00;;;;4936779;28;20154;-84
2021/05/20 09:13:34;;;;;;;31.13;23.08;;;12.40;84.40;11.60;102007.00;;;;4924663;28;20058;-83
2021/05/20 09:16:13;;;;;;;33.50;23.13;;;12.50;84.10;11.70;101999.00;;;;4939884;28;20476;-83
2021/05/20 09:18:41;;;;;;;34.75;25.23;;;12.60;84.90;11.90;101990.00;;;;4968195;28;20058;-83
2021/05/20 09:21:10;;;;;;;37.38;23.60;;;;;12.10;101999.00;;;;4919397;28;20127;-83
2021/05/20 09:23:48;;;;;;;35.80;23.25;;;12.90;83.70;12.20;101984.00;;;;4931596;28;20074;-84
2021/05/20 09:26:15;;;;;;;35.42;24.25;;;13.00;83.20;12.30;102002.00;;;;4919895;29;20129;-84
2021/05/20 09:28:48;;;;;;;33.33;23.90;;;13.10;83.00;12.40;102010.00;;;;4932891;28;20046;-84
2021/05/20 09:31:16;;;;;;;36.75;23.67;;;13.20;82.80;12.50;102010.00;;;;4936933;28;20082;-84
2021/05/20 09:33:52;;;;;;;35.55;25.33;;;13.30;82.20;12.50;102017.00;;;;4950272;28;20109;-84
2021/05/20 09:36:46;;;;;;;39.95;25.95;;;13.30;82.40;12.50;102009.00;;;;4950881;28;20111;-84
2021/05/20 09:39:14;;;;;;;37.35;25.30;;;;;12.60;102020.00;;;;4952377;28;20458;-84
2021/05/20 09:41:40;;;;;;;34.63;24.73;;;13.40;82.70;12.70;102025.00;;;;4937646;28;20039;-84
2021/05/20 09:44:25;;;;;;;40.57;27.70;;;13.40;81.80;12.70;102016.00;;;;4930850;28;20138;-84
2021/05/20 09:46:52;;;;;;;40.88;27.40;;;;;12.80;102013.00;;;;4932970;28;20066;-83
2021/05/20 09:49:18;;;;;;;41.17;26.97;;;;;12.80;102022.00;;;;4934942;28;20133;-83
2021/05/20 09:51:44;;;;;;;42.40;27.42;;;13.50;81.70;12.80;102018.00;;;;4943603;28;20793;-83
2021/05/20 09:54:10;;;;;;;42.40;27.67;;;13.60;81.90;12.80;102019.00;;;;4953051;28;20057;-83
2021/05/20 09:56:40;;;;;;;44.83;28.52;;;13.60;81.70;12.90;102019.00;;;;4947513;28;20533;-83
2021/05/20 09:59:11;;;;;;;43.70;28.05;;;13.70;81.10;13.00;102017.00;;;;4935842;28;20066;-83
2021/05/20 10:01:39;;;;;;;47.60;28.27;;;13.70;80.80;13.10;102009.00;;;;4921190;29;20524;-83
2021/05/20 10:04:07;;;;;;;46.03;29.15;;;13.70;79.10;13.20;102000.00;;;;4939071;28;20031;-84
2021/05/20 10:06:42;;;;;;;48.88;31.42;;;13.90;80.10;13.30;102006.00;;;;4935226;28;20094;-83
2021/05/20 10:09:11;;;;;;;53.35;33.72;;;13.80;79.90;13.40;101999.00;;;;4940514;28;20058;-84
2021/05/20 10:11:38;;;;;;;54.10;32.50;;;14.10;79.90;13.40;101988.00;;;;4942256;28;20142;-83
2021/05/20 10:14:05;;;;;;;59.30;37.00;;;14.10;79.80;13.50;101994.00;;;;4947496;28;20097;-84
2021/05/20 10:16:38;;;;;;;77.15;43.50;;;14.20;78.80;13.50;101994.00;;;;4961822;28;20444;-84
2021/05/20 10:19:06;;;;;;;70.45;39.83;;;14.30;79.70;13.50;101982.00;;;;4915292;28;20122;-83
2021/05/20 10:21:32;;;;;;;74.25;44.35;;;14.30;79.70;13.70;101977.00;;;;4952447;28;20043;-84
2021/05/20 10:23:59;;;;;;;79.90;48.13;;;;;14.00;101974.00;;;;4952832;28;20040;-84
2021/05/20 10:26:25;;;;;;;89.60;50.33;;;;;14.20;101971.00;;;;4936839;28;20052;-84
2021/05/20 10:28:52;;;;;;;82.63;49.08;;;;;14.20;101963.00;;;;4939326;28;20291;-84
2021/05/20 10:31:19;;;;;;;80.28;46.38;;;14.80;77.20;14.30;101963.00;;;;4937547;28;20143;-84
2021/05/20 10:33:45;;;;;;;78.13;45.75;;;14.90;77.40;14.30;101964.00;;;;4945144;28;20199;-85
2021/05/20 10:36:26;;;;;;;84.88;48.17;;;15.00;77.60;14.30;101955.00;;;;4958711;28;20175;-84
2021/05/20 10:38:53;;;;;;;81.38;46.38;;;15.10;76.40;14.60;101954.00;;;;4939973;28;20054;-83
2021/05/20 10:41:23;;;;;;;78.47;44.60;;;15.30;77.10;14.80;101945.00;;;;4958371;28;20049;-84
2021/05/20 10:44:07;;;;;;;71.63;41.35;;;15.50;76.30;15.00;101926.00;;;;4957998;28;20089;-84
2021/05/20 10:47:02;;;;;;;64.03;39.22;;;15.70;73.50;15.20;101942.00;;;;4939348;28;20417;-84
2021/05/20 10:49:53;;;;;;;64.47;38.85;;;15.70;73.80;15.20;101930.00;;;;4918748;29;20470;-85
2021/05/20 10:52:40;;;;;;;59.08;36.33;;;15.80;73.30;15.20;101935.00;;;;4927536;28;20133;-85
2021/05/20 10:55:15;;;;;;;58.55;33.00;;;15.90;74.20;15.40;101931.00;;;;4942553;28;20142;-84
2021/05/20 10:58:03;;;;;;;57.72;34.88;;;;;15.70;101929.00;;;;4941958;28;20070;-85
2021/05/20 11:00:34;;;;;;;53.92;33.70;;;16.30;73.90;15.90;101929.00;;;;4961834;28;20051;-85
2021/05/20 11:03:01;;;;;;;52.20;33.75;;;;;16.10;101915.00;;;;4954754;28;20047;-85
2021/05/20 11:05:42;;;;;;;50.63;32.63;;;16.60;72.70;16.00;101917.00;;;;4925131;28;20046;-85